Time;durP1;ratioP1;P1;durP2;ratioP2;P2;SDS_P1;SDS_P2;PMS_P1;PMS_P2;Temp;Humidity;BMP_temperature;BMP_pressure;BME280_temperature;BME280_humidity;BME280_pressure;Samples;Min_cycle;Max_cycle;Signal;HPM_P1;HPM_P2
2023/11/26 00:01:53;;;;;;;5.07;4.30;;;4.40;99.90;;;;;;5055350;28;20503;-70
2023/11/26 00:04:22;;;;;;;5.80;4.40;;;4.30;99.90;;;;;;5050340;28;20172;-71
2023/11/26 00:06:48;;;;;;;7.77;5.00;;;4.30;99.90;;;;;;5034587;28;20563;-70
2023/11/26 00:09:15;;;;;;;5.57;4.60;;;4.30;99.90;;;;;;5034637;28;20445;-71
2023/11/26 00:11:40;;;;;;;6.73;4.20;;;4.30;99.90;;;;;;5034570;28;20422;-71
2023/11/26 00:14:06;;;;;;;4.43;4.00;;;4.40;99.90;;;;;;5035782;28;20404;-71
2023/11/26 00:16:38;;;;;;;6.03;4.70;;;4.40;99.90;;;;;;5054531;28;20173;-71
2023/11/26 00:19:04;;;;;;;8.73;5.27;;;4.40;99.90;;;;;;5054303;28;20170;-70
2023/11/26 00:21:30;;;;;;;7.40;4.87;;;4.60;99.90;;;;;;5054065;28;20409;-70
2023/11/26 00:23:56;;;;;;;5.60;4.43;;;4.50;99.90;;;;;;5040085;28;20481;-73
2023/11/26 00:26:24;;;;;;;4.60;4.10;;;4.40;99.90;;;;;;5035073;28;20436;-73
2023/11/26 00:28:49;;;;;;;4.83;4.33;;;4.40;99.90;;;;;;5035098;28;20452;-73
2023/11/26 00:31:15;;;;;;;5.60;4.37;;;4.40;99.90;;;;;;5034832;28;20403;-74
2023/11/26 00:33:44;;;;;;;6.07;4.50;;;4.30;99.90;;;;;;5046554;28;20191;-73
2023/11/26 00:36:12;;;;;;;5.30;3.80;;;4.30;99.90;;;;;;5053878;28;20182;-73
2023/11/26 00:38:37;;;;;;;6.30;3.60;;;4.40;99.90;;;;;;5054127;28;20419;-73
2023/11/26 00:41:03;;;;;;;4.77;4.27;;;4.30;99.90;;;;;;5054147;28;20771;-72
2023/11/26 00:43:28;;;;;;;8.07;3.97;;;4.40;99.90;;;;;;5043806;28;20662;-72
2023/11/26 00:45:54;;;;;;;6.73;4.70;;;4.60;99.90;;;;;;5034408;28;20178;-73
2023/11/26 00:48:19;;;;;;;5.63;4.10;;;4.70;99.90;;;;;;5033800;28;20704;-72
2023/11/26 00:50:45;;;;;;;5.83;3.97;;;4.90;99.90;;;;;;5033754;28;20215;-72
2023/11/26 00:53:10;;;;;;;5.80;4.03;;;4.90;99.90;;;;;;5041220;28;20209;-74
2023/11/26 00:55:36;;;;;;;4.93;4.23;;;4.90;99.90;;;;;;5054004;28;20167;-73
2023/11/26 00:58:02;;;;;;;4.90;4.50;;;4.80;99.90;;;;;;5053872;28;20280;-72
2023/11/26 01:00:28;;;;;;;4.90;3.90;;;4.70;99.90;;;;;;5053914;28;20209;-73
2023/11/26 01:02:54;;;;;;;6.53;3.57;;;4.70;99.90;;;;;;5048410;28;20426;-73
2023/11/26 01:05:20;;;;;;;7.60;5.00;;;4.80;99.90;;;;;;5033535;28;20410;-73
2023/11/26 01:07:45;;;;;;;5.43;4.20;;;4.90;99.90;;;;;;5033405;28;20476;-72
2023/11/26 01:10:11;;;;;;;5.67;4.60;;;4.80;99.90;;;;;;5033525;28;20185;-71
2023/11/26 01:12:37;;;;;;;4.30;3.83;;;4.80;99.90;;;;;;5035922;28;20179;-73
2023/11/26 01:15:06;;;;;;;3.93;3.57;;;4.70;99.90;;;;;;5053178;28;20163;-72
2023/11/26 01:17:32;;;;;;;4.73;3.73;;;4.60;99.90;;;;;;5043558;28;20409;-72
2023/11/26 01:19:57;;;;;;;6.20;3.50;;;4.40;99.90;;;;;;5033551;28;20492;-72
2023/11/26 01:22:24;;;;;;;5.13;3.60;;;4.40;99.90;;;;;;5033613;28;20206;-73
2023/11/26 01:24:50;;;;;;;5.57;3.97;;;4.40;99.90;;;;;;5053403;28;20220;-72
2023/11/26 01:27:17;;;;;;;8.50;3.57;;;4.40;99.90;;;;;;5042799;28;20414;-72
2023/11/26 01:29:43;;;;;;;4.83;3.70;;;4.40;99.90;;;;;;5033072;28;21083;-72
2023/11/26 01:32:08;;;;;;;7.40;3.90;;;4.50;99.90;;;;;;5033337;28;20258;-72
2023/11/26 01:34:34;;;;;;;6.33;3.73;;;4.70;99.90;;;;;;5051691;28;20173;-72
2023/11/26 01:37:00;;;;;;;8.57;5.13;;;4.60;99.90;;;;;;5053002;28;20167;-72
2023/11/26 01:39:25;;;;;;;7.43;4.60;;;4.60;99.90;;;;;;5051725;28;20174;-73
2023/11/26 01:41:51;;;;;;;5.53;4.27;;;4.70;99.90;;;;;;5052204;28;20687;-72
2023/11/26 01:44:16;;;;;;;5.77;4.23;;;4.70;99.90;;;;;;5037008;28;20539;-71
2023/11/26 01:46:43;;;;;;;5.70;4.33;;;4.60;99.90;;;;;;5032919;28;20163;-72
2023/11/26 01:49:08;;;;;;;6.30;3.53;;;4.70;99.90;;;;;;5033030;28;20569;-71
2023/11/26 01:51:35;;;;;;;4.77;4.27;;;4.80;99.90;;;;;;5033168;28;20491;-73
2023/11/26 01:54:01;;;;;;;4.47;3.77;;;4.70;99.90;;;;;;5045327;28;20169;-72
2023/11/26 01:56:28;;;;;;;5.43;3.87;;;4.80;99.90;;;;;;5050529;28;20848;-73
2023/11/26 01:58:55;;;;;;;3.53;3.07;;;4.70;99.90;;;;;;5052754;28;20813;-71
2023/11/26 02:01:22;;;;;;;3.13;2.70;;;4.60;99.90;;;;;;5052703;28;20960;-73
2023/11/26 02:03:47;;;;;;;3.60;3.27;;;4.50;99.90;;;;;;5041091;28;20460;-72
2023/11/26 02:06:13;;;;;;;4.40;3.13;;;4.50;99.90;;;;;;5032764;28;20410;-72
2023/11/26 02:08:39;;;;;;;6.33;3.60;;;4.50;99.90;;;;;;5032812;28;20209;-72
2023/11/26 02:11:05;;;;;;;5.17;3.63;;;4.40;99.90;;;;;;5033170;28;20472;-72
2023/11/26 02:13:31;;;;;;;5.50;3.73;;;4.40;99.90;;;;;;5041825;28;20444;-70
2023/11/26 02:15:56;;;;;;;5.47;3.93;;;4.30;99.90;;;;;;5052537;28;20401;-72
2023/11/26 02:18:23;;;;;;;3.60;3.20;;;4.40;99.90;;;;;;5052838;28;20545;-72
2023/11/26 02:20:48;;;;;;;6.37;3.77;;;4.40;99.90;;;;;;5052596;28;20262;-72
2023/11/26 02:23:14;;;;;;;5.97;3.53;;;4.50;99.90;;;;;;5045758;28;20879;-70
2023/11/26 02:25:39;;;;;;;4.97;3.37;;;4.40;99.90;;;;;;5032895;28;20179;-73
2023/11/26 02:28:05;;;;;;;4.27;3.03;;;4.40;99.90;;;;;;5034544;28;20202;-72
2023/11/26 02:30:32;;;;;;;5.37;3.30;;;4.40;99.90;;;;;;5036377;28;20586;-72
2023/11/26 02:32:58;;;;;;;4.13;3.30;;;4.50;99.90;;;;;;5040687;28;20426;-72
2023/11/26 02:35:24;;;;;;;4.87;3.63;;;4.60;99.90;;;;;;5056544;28;20480;-72
2023/11/26 02:37:50;;;;;;;5.13;3.70;;;4.70;99.90;;;;;;5056284;28;20433;-72
2023/11/26 02:40:15;;;;;;;7.00;4.17;;;4.70;99.90;;;;;;5056710;28;20401;-72
2023/11/26 02:42:42;;;;;;;7.70;3.80;;;4.80;99.90;;;;;;5054499;28;20182;-72
2023/11/26 02:45:08;;;;;;;7.40;4.40;;;4.80;99.90;;;;;;5036364;28;20191;-72
2023/11/26 02:47:33;;;;;;;6.10;3.83;;;4.80;99.90;;;;;;5036121;28;20437;-72
2023/11/26 02:49:59;;;;;;;4.23;3.33;;;4.70;99.90;;;;;;5036348;28;20456;-72
2023/11/26 02:52:24;;;;;;;6.50;3.47;;;4.60;99.90;;;;;;5035977;28;20241;-72
2023/11/26 02:54:50;;;;;;;6.73;3.77;;;4.60;99.90;;;;;;5054054;28;20198;-73
2023/11/26 02:57:15;;;;;;;6.00;3.73;;;4.60;99.90;;;;;;5055984;28;20723;-72
2023/11/26 02:59:44;;;;;;;6.30;3.90;;;4.60;99.90;;;;;;5055831;28;20174;-71
2023/11/26 03:02:09;;;;;;;4.03;3.07;;;4.60;99.90;;;;;;5056106;28;20278;-72
2023/11/26 03:04:37;;;;;;;3.90;2.70;;;4.70;99.90;;;;;;5038786;28;20535;-71
2023/11/26 03:07:03;;;;;;;4.77;3.20;;;4.60;99.90;;;;;;5036163;28;20562;-71
2023/11/26 03:14:53;;;;;;;5.07;3.23;;;4.80;99.90;;;;;;5054062;28;20443;-72
2023/11/26 03:17:19;;;;;;;6.50;4.03;;;5.00;99.90;;;;;;5045512;28;20893;-73
2023/11/26 03:19:45;;;;;;;4.20;3.37;;;5.00;99.90;;;;;;5035469;28;20437;-71
2023/11/26 03:22:11;;;;;;;2.37;2.03;;;5.00;99.90;;;;;;5035376;28;20468;-72
2023/11/26 03:24:37;;;;;;;3.70;3.10;;;4.90;99.90;;;;;;5052826;28;20905;-72
2023/11/26 03:27:03;;;;;;;6.30;3.03;;;4.90;99.90;;;;;;5048748;28;20186;-73
2023/11/26 03:29:29;;;;;;;3.17;2.80;;;4.80;99.90;;;;;;5035213;28;20548;-72
2023/11/26 03:31:55;;;;;;;4.37;2.50;;;4.80;99.90;;;;;;5035462;28;20461;-72
2023/11/26 03:34:23;;;;;;;5.37;2.87;;;4.90;99.90;;;;;;5049995;28;20175;-72
2023/11/26 03:36:49;;;;;;;3.57;2.50;;;4.90;99.90;;;;;;5055044;28;20417;-70
2023/11/26 03:39:18;;;;;;;3.10;2.50;;;4.90;99.90;;;;;;5053771;28;20406;-72
2023/11/26 03:41:44;;;;;;;4.10;2.73;;;4.80;99.90;;;;;;5054925;28;20186;-71
2023/11/26 03:44:09;;;;;;;3.00;2.17;;;4.70;99.90;;;;;;5041855;28;20782;-72
2023/11/26 03:46:37;;;;;;;4.40;2.50;;;4.70;99.90;;;;;;5035290;28;20421;-72
2023/11/26 03:49:03;;;;;;;3.07;2.70;;;4.60;99.90;;;;;;5035036;28;20596;-72
2023/11/26 03:51:28;;;;;;;2.57;2.10;;;4.60;99.90;;;;;;5034792;28;20939;-72
2023/11/26 03:53:54;;;;;;;4.20;2.60;;;4.50;99.90;;;;;;5045597;28;20182;-71
2023/11/26 03:56:20;;;;;;;5.30;2.23;;;4.60;99.90;;;;;;5051717;28;20258;-73
2023/11/26 03:58:45;;;;;;;4.87;2.47;;;4.60;99.90;;;;;;5015015;28;20184;-72
2023/11/26 04:01:11;;;;;;;4.60;2.73;;;4.60;99.90;;;;;;5014991;28;20187;-73
2023/11/26 04:03:37;;;;;;;2.80;2.30;;;4.60;99.90;;;;;;5031620;28;20249;-72
2023/11/26 04:06:03;;;;;;;3.67;2.37;;;4.70;99.90;;;;;;5054538;28;20409;-71
2023/11/26 04:08:28;;;;;;;4.47;2.33;;;4.80;99.90;;;;;;5054523;28;20294;-71
2023/11/26 04:10:54;;;;;;;2.80;2.07;;;4.90;99.90;;;;;;5054547;28;20182;-72
2023/11/26 04:13:22;;;;;;;2.40;2.20;;;4.90;99.90;;;;;;5048536;28;20258;-73
2023/11/26 04:15:54;;;;;;;3.03;1.80;;;4.90;99.90;;;;;;5034467;28;20175;-71
2023/11/26 04:18:21;;;;;;;3.00;1.63;;;5.00;99.90;;;;;;5034779;28;20813;-71
2023/11/26 04:20:47;;;;;;;2.13;1.93;;;5.00;99.90;;;;;;5034363;28;20460;-73
2023/11/26 04:23:18;;;;;;;5.83;2.60;;;5.00;99.90;;;;;;5038768;28;20464;-70
2023/11/26 04:25:44;;;;;;;3.20;1.93;;;4.90;99.90;;;;;;5054518;28;20770;-70
2023/11/26 04:28:10;;;;;;;6.13;2.40;;;4.80;99.90;;;;;;5054131;28;20456;-73
2023/11/26 04:30:35;;;;;;;2.77;1.90;;;4.80;99.90;;;;;;5054204;28;20413;-72
2023/11/26 04:33:02;;;;;;;3.90;1.63;;;4.80;99.90;;;;;;5051371;28;20557;-73
2023/11/26 04:35:27;;;;;;;3.40;2.30;;;4.80;99.90;;;;;;5034347;28;20187;-72
2023/11/26 04:37:53;;;;;;;2.60;1.67;;;4.80;99.90;;;;;;5034260;28;20406;-72
2023/11/26 04:40:20;;;;;;;5.80;1.63;;;4.90;99.90;;;;;;5034140;28;20250;-73
2023/11/26 04:42:46;;;;;;;2.30;1.70;;;4.90;99.90;;;;;;5034774;28;20253;-73
2023/11/26 04:45:11;;;;;;;3.30;1.77;;;4.90;99.90;;;;;;5053884;28;20892;-72
2023/11/26 04:47:37;;;;;;;4.63;1.53;;;4.90;99.90;;;;;;5053962;28;20442;-72
2023/11/26 04:50:04;;;;;;;2.83;1.70;;;5.00;99.90;;;;;;5053588;28;20201;-71
2023/11/26 04:52:30;;;;;;;3.47;1.80;;;5.10;99.90;;;;;;5053940;28;20673;-72
2023/11/26 04:54:55;;;;;;;1.87;1.30;;;5.10;99.90;;;;;;5035236;28;20498;-71
2023/11/26 04:57:21;;;;;;;3.43;2.00;;;5.10;99.90;;;;;;5033883;28;20692;-71
2023/11/26 04:59:47;;;;;;;2.37;2.00;;;5.10;99.90;;;;;;5033822;28;20627;-72
2023/11/26 05:02:14;;;;;;;1.50;1.40;;;5.10;99.90;;;;;;5033873;28;20191;-72
2023/11/26 05:04:40;;;;;;;3.60;2.17;;;5.00;99.90;;;;;;5049773;28;20409;-72
2023/11/26 05:07:05;;;;;;;3.60;1.37;;;5.10;99.90;;;;;;5053740;28;20439;-71
2023/11/26 05:09:32;;;;;;;3.77;1.53;;;5.00;99.90;;;;;;5051131;28;20514;-72
2023/11/26 05:11:59;;;;;;;3.10;1.53;;;5.00;99.90;;;;;;5033376;28;20191;-73
2023/11/26 05:14:24;;;;;;;3.70;2.10;;;5.10;99.90;;;;;;5047047;28;20408;-72
2023/11/26 05:16:50;;;;;;;3.60;2.00;;;4.90;99.90;;;;;;5053562;28;20401;-71
2023/11/26 05:19:15;;;;;;;3.23;1.50;;;5.00;99.90;;;;;;5053238;28;20175;-72
2023/11/26 05:21:42;;;;;;;1.80;1.70;;;5.10;99.90;;;;;;5053075;28;20210;-72
2023/11/26 05:24:07;;;;;;;3.10;1.30;;;5.20;99.90;;;;;;5042009;28;20645;-72
2023/11/26 05:26:33;;;;;;;1.93;1.60;;;5.20;99.90;;;;;;5033480;28;20410;-72
2023/11/26 05:28:59;;;;;;;3.70;1.37;;;5.10;99.90;;;;;;5031806;28;20460;-72
2023/11/26 05:31:24;;;;;;;3.90;1.63;;;5.20;99.90;;;;;;5033338;28;20167;-73
2023/11/26 05:33:54;;;;;;;1.60;1.50;;;5.30;99.90;;;;;;5034721;28;20174;-73
2023/11/26 05:36:19;;;;;;;4.37;2.20;;;5.30;99.90;;;;;;5033067;28;20174;-71
2023/11/26 05:38:46;;;;;;;6.73;1.80;;;5.30;99.90;;;;;;5033342;28;20407;-71
2023/11/26 05:41:11;;;;;;;4.00;1.80;;;5.30;99.90;;;;;;5033416;28;20626;-72
2023/11/26 05:43:37;;;;;;;1.83;1.50;;;5.30;99.90;;;;;;5039669;28;20467;-71
2023/11/26 05:46:06;;;;;;;3.13;1.47;;;5.40;99.90;;;;;;5053106;28;20177;-72
2023/11/26 05:48:33;;;;;;;3.53;1.40;;;5.20;99.90;;;;;;5052740;28;20194;-71
2023/11/26 05:50:59;;;;;;;2.50;1.73;;;5.10;99.90;;;;;;5053020;28;20397;-72
2023/11/26 05:53:24;;;;;;;1.37;1.27;;;5.00;99.90;;;;;;5047985;28;20429;-73
2023/11/26 05:55:50;;;;;;;8.93;2.37;;;5.00;99.90;;;;;;5033131;28;20789;-71
2023/11/26 05:58:16;;;;;;;1.57;1.30;;;5.00;99.90;;;;;;5032803;28;20630;-70
2023/11/26 06:00:42;;;;;;;2.07;1.60;;;4.90;99.90;;;;;;5032771;28;20179;-71
2023/11/26 06:03:08;;;;;;;2.57;1.37;;;4.80;99.90;;;;;;5036990;28;20427;-72
2023/11/26 06:05:34;;;;;;;2.43;1.70;;;4.80;99.90;;;;;;5053660;28;20945;-72
2023/11/26 06:08:03;;;;;;;2.17;1.70;;;4.80;99.90;;;;;;5056758;28;20198;-72
2023/11/26 06:10:30;;;;;;;3.87;1.90;;;4.70;99.90;;;;;;5056736;28;20412;-72
2023/11/26 06:12:55;;;;;;;3.40;1.97;;;4.70;99.90;;;;;;5055898;28;20425;-72
2023/11/26 06:15:21;;;;;;;2.50;1.33;;;4.70;99.90;;;;;;5036738;28;20420;-72
2023/11/26 06:17:47;;;;;;;2.30;1.90;;;4.70;99.90;;;;;;5035379;28;20182;-72
2023/11/26 06:20:13;;;;;;;2.43;1.90;;;4.80;99.90;;;;;;5036693;28;20565;-72
2023/11/26 06:22:39;;;;;;;3.60;1.77;;;4.80;99.90;;;;;;5037098;28;20453;-71
2023/11/26 06:25:08;;;;;;;2.17;1.70;;;4.90;99.90;;;;;;5053589;28;20409;-71
2023/11/26 06:27:34;;;;;;;2.33;1.77;;;5.00;99.90;;;;;;5056685;28;20405;-71
2023/11/26 06:30:00;;;;;;;3.73;1.53;;;5.10;99.90;;;;;;5056349;28;20468;-71
2023/11/26 06:32:25;;;;;;;2.90;1.60;;;5.10;99.90;;;;;;5056496;28;20198;-73
2023/11/26 06:34:51;;;;;;;1.63;1.40;;;5.20;99.90;;;;;;5040036;28;20176;-71
2023/11/26 06:37:16;;;;;;;3.00;1.23;;;5.20;99.90;;;;;;5036323;28;20645;-71
2023/11/26 06:39:42;;;;;;;6.80;1.67;;;5.20;99.90;;;;;;5036273;28;20179;-71
2023/11/26 06:42:07;;;;;;;2.00;1.50;;;5.30;99.90;;;;;;5036143;28;20196;-72
2023/11/26 06:44:33;;;;;;;1.93;1.60;;;5.40;99.90;;;;;;5049795;28;20170;-71
2023/11/26 06:46:59;;;;;;;3.80;1.37;;;5.40;99.90;;;;;;5056620;28;20622;-71
2023/11/26 06:49:24;;;;;;;2.33;1.53;;;5.40;99.90;;;;;;5055944;28;20241;-72
2023/11/26 06:51:53;;;;;;;3.33;2.00;;;5.40;99.90;;;;;;5055943;28;20236;-72
2023/11/26 06:54:18;;;;;;;2.70;2.50;;;5.20;99.90;;;;;;5044415;28;20286;-73
2023/11/26 06:56:44;;;;;;;2.30;2.10;;;5.30;99.90;;;;;;5036227;28;20432;-72
2023/11/26 06:59:09;;;;;;;3.57;2.20;;;5.40;99.90;;;;;;5036167;28;20222;-71
2023/11/26 07:01:36;;;;;;;4.17;2.33;;;5.50;99.90;;;;;;5035783;28;20172;-72
2023/11/26 07:04:02;;;;;;;1.83;1.43;;;5.40;99.90;;;;;;5043205;28;20176;-72
2023/11/26 07:06:27;;;;;;;2.17;1.67;;;5.50;99.90;;;;;;5035999;28;20406;-72
2023/11/26 07:08:53;;;;;;;3.73;2.00;;;5.30;99.90;;;;;;5035933;28;20535;-73
2023/11/26 07:11:24;;;;;;;3.10;1.90;;;5.20;99.90;;;;;;5036039;28;20180;-72
2023/11/26 07:13:54;;;;;;;2.57;1.80;;;5.40;99.90;;;;;;5041615;28;20179;-72
2023/11/26 07:16:21;;;;;;;2.70;2.03;;;5.40;99.90;;;;;;5054257;28;20920;-72
2023/11/26 07:18:48;;;;;;;1.83;1.47;;;5.40;99.90;;;;;;5055691;28;20408;-71
2023/11/26 07:21:14;;;;;;;2.87;1.83;;;5.30;99.90;;;;;;5055408;28;20406;-72
2023/11/26 07:23:40;;;;;;;2.43;1.90;;;5.20;99.90;;;;;;5049853;28;20954;-72
2023/11/26 07:26:14;;;;;;;3.30;2.00;;;5.20;99.90;;;;;;5035610;28;20496;-72
2023/11/26 07:28:40;;;;;;;2.80;2.10;;;5.20;99.90;;;;;;5035792;28;20198;-72
2023/11/26 07:31:13;;;;;;;2.17;1.97;;;5.10;99.90;;;;;;5035329;28;20462;-72
2023/11/26 07:33:40;;;;;;;3.30;1.90;;;5.20;99.90;;;;;;5040898;28;20203;-73
2023/11/26 07:36:23;;;;;;;1.90;1.70;;;5.40;99.90;;;;;;5055492;28;20812;-71
2023/11/26 07:38:50;;;;;;;2.13;1.87;;;5.20;99.90;;;;;;5047757;28;20507;-72
2023/11/26 07:41:15;;;;;;;2.67;2.03;;;5.30;99.90;;;;;;5035394;28;20422;-72
2023/11/26 07:43:41;;;;;;;4.53;2.23;;;5.20;99.90;;;;;;5040438;28;20428;-73
2023/11/26 07:46:08;;;;;;;4.13;2.40;;;5.20;99.90;;;;;;5055108;28;20179;-73
2023/11/26 07:48:35;;;;;;;4.20;2.20;;;5.20;99.90;;;;;;5054842;28;20468;-72
2023/11/26 07:51:03;;;;;;;2.67;1.90;;;4.90;99.90;;;;;;5054943;28;20401;-72
2023/11/26 07:53:30;;;;;;;2.80;2.20;;;5.00;99.90;;;;;;5051282;28;20469;-72
2023/11/26 07:55:56;;;;;;;3.20;2.20;;;5.00;99.90;;;;;;5033642;28;20415;-73
2023/11/26 07:58:27;;;;;;;3.60;2.40;;;5.10;99.90;;;;;;5037809;28;20411;-73
2023/11/26 08:00:53;;;;;;;2.47;1.93;;;5.30;99.90;;;;;;5035703;28;20835;-74
2023/11/26 08:03:19;;;;;;;1.63;1.50;;;5.20;99.90;;;;;;5037123;28;20472;-74
2023/11/26 08:05:44;;;;;;;6.83;2.80;;;5.30;99.90;;;;;;5055433;28;20549;-72
2023/11/26 08:08:14;;;;;;;2.90;2.47;;;5.20;99.90;;;;;;5054986;28;20685;-73
2023/11/26 08:10:39;;;;;;;3.87;2.57;;;5.10;99.90;;;;;;5055009;28;20170;-73
2023/11/26 08:13:07;;;;;;;4.03;2.40;;;5.10;99.90;;;;;;5054496;28;20433;-73
2023/11/26 08:15:36;;;;;;;3.80;3.40;;;5.20;99.90;;;;;;5034838;28;20759;-73
2023/11/26 08:18:04;;;;;;;2.30;2.10;;;5.20;99.90;;;;;;5035033;28;20403;-73
2023/11/26 08:20:30;;;;;;;5.00;2.70;;;5.30;99.90;;;;;;5034825;28;20432;-75
2023/11/26 08:22:59;;;;;;;3.10;2.77;;;5.20;99.90;;;;;;5034594;28;20937;-73
2023/11/26 08:25:28;;;;;;;7.50;3.40;;;5.30;99.90;;;;;;5053077;28;20656;-74
2023/11/26 08:27:54;;;;;;;10.83;8.80;;;5.10;99.90;;;;;;5053312;28;20816;-73
2023/11/26 08:30:31;;;;;;;8.93;5.50;;;5.10;99.90;;;;;;5055325;28;20413;-74
2023/11/26 08:33:02;;;;;;;7.27;5.87;;;5.10;99.90;;;;;;5054795;28;20211;-75
2023/11/26 08:35:32;;;;;;;4.47;3.20;;;5.20;99.90;;;;;;5033750;28;20407;-74
2023/11/26 08:38:00;;;;;;;4.00;3.60;;;5.30;99.90;;;;;;5034274;28;20383;-74
2023/11/26 08:40:25;;;;;;;19.53;14.80;;;5.40;99.90;;;;;;5034150;28;20399;-73
2023/11/26 08:42:54;;;;;;;6.67;6.17;;;5.40;99.90;;;;;;5033703;28;20521;-73
2023/11/26 08:45:23;;;;;;;5.70;5.10;;;5.30;99.90;;;;;;5052114;28;20171;-74
2023/11/26 08:47:49;;;;;;;9.50;7.83;;;5.40;99.90;;;;;;5053792;28;20414;-73
2023/11/26 08:50:15;;;;;;;5.30;4.80;;;5.70;99.90;;;;;;5054195;28;20911;-73
2023/11/26 08:52:41;;;;;;;7.87;7.10;;;5.70;99.90;;;;;;5052676;28;20480;-74
2023/11/26 08:55:09;;;;;;;4.27;3.73;;;5.70;99.90;;;;;;5037579;28;20181;-73
2023/11/26 08:57:41;;;;;;;10.20;3.67;;;5.70;99.90;;;;;;5033783;28;20441;-73
2023/11/26 09:00:10;;;;;;;8.37;3.60;;;5.70;99.90;;;;;;5034228;28;21012;-74
2023/11/26 09:02:38;;;;;;;3.23;2.67;;;5.80;99.90;;;;;;5033700;28;20420;-74
2023/11/26 09:05:07;;;;;;;4.00;2.90;;;5.80;99.90;;;;;;5041967;28;20926;-74
2023/11/26 09:07:34;;;;;;;3.53;3.23;;;5.70;99.90;;;;;;5033731;28;20414;-74
2023/11/26 09:09:59;;;;;;;5.03;3.60;;;5.90;99.90;;;;;;5033924;28;20497;-74
2023/11/26 09:12:27;;;;;;;5.40;3.40;;;6.00;99.90;;;;;;5033526;28;20429;-75
2023/11/26 09:14:53;;;;;;;8.10;4.70;;;6.30;99.90;;;;;;5047525;28;20626;-74
2023/11/26 09:17:21;;;;;;;6.23;5.67;;;6.40;99.90;;;;;;5054036;28;20586;-74
2023/11/26 09:19:47;;;;;;;4.93;4.47;;;6.60;99.90;;;;;;5053578;28;20445;-73
2023/11/26 09:22:13;;;;;;;8.50;7.80;;;6.80;99.90;;;;;;5053386;28;20462;-74
2023/11/26 09:24:38;;;;;;;5.60;4.40;;;6.70;99.90;;;;;;5041348;28;20459;-73
2023/11/26 09:27:05;;;;;;;3.73;3.20;;;6.70;99.90;;;;;;5033360;28;20176;-73
2023/11/26 09:29:30;;;;;;;4.30;3.90;;;6.90;99.90;;;;;;5033523;28;20214;-74
2023/11/26 09:31:56;;;;;;;4.33;3.30;;;6.90;99.90;;;;;;5033779;28;20433;-73
2023/11/26 09:34:22;;;;;;;4.77;3.20;;;6.60;99.90;;;;;;5042593;28;20177;-74
2023/11/26 09:36:47;;;;;;;9.53;3.83;;;6.80;99.90;;;;;;5053779;28;20253;-74
2023/11/26 09:39:13;;;;;;;4.93;3.40;;;6.90;99.90;;;;;;5053227;28;20170;-75
2023/11/26 09:41:38;;;;;;;4.47;3.50;;;6.90;99.90;;;;;;5053353;28;20516;-74
2023/11/26 09:44:07;;;;;;;4.10;3.43;;;6.80;99.90;;;;;;5046071;28;20598;-73
2023/11/26 09:46:34;;;;;;;5.30;3.73;;;6.80;99.90;;;;;;5033612;28;20173;-74
2023/11/26 09:49:02;;;;;;;4.90;3.80;;;6.90;99.90;;;;;;5032516;28;20514;-74
2023/11/26 09:51:30;;;;;;;4.97;4.13;;;6.70;99.90;;;;;;5033197;28;20405;-74
2023/11/26 09:53:56;;;;;;;6.37;3.70;;;6.80;99.90;;;;;;5038587;28;20942;-74
2023/11/26 09:56:22;;;;;;;6.60;4.27;;;6.90;99.90;;;;;;5052849;28;20397;-74
2023/11/26 09:58:47;;;;;;;5.47;3.90;;;7.00;99.90;;;;;;5052744;28;20259;-74
2023/11/26 10:01:13;;;;;;;8.27;4.00;;;6.90;99.90;;;;;;5052930;28;20412;-74
2023/11/26 10:03:58;;;;;;;8.47;3.93;;;6.70;99.90;;;;;;5048422;28;20202;-75
2023/11/26 10:06:27;;;;;;;6.67;3.83;;;6.70;99.90;;;;;;5049591;28;20180;-73
2023/11/26 10:08:54;;;;;;;4.10;3.70;;;6.50;99.90;;;;;;5052790;28;20442;-75
2023/11/26 10:11:24;;;;;;;5.47;3.60;;;6.60;99.90;;;;;;5052852;28;20395;-75
2023/11/26 10:13:52;;;;;;;5.97;3.70;;;6.70;99.90;;;;;;5040280;28;20411;-74
2023/11/26 10:16:29;;;;;;;8.90;6.00;;;6.90;99.90;;;;;;5022399;28;20430;-75
2023/11/26 10:18:54;;;;;;;6.13;4.27;;;6.90;99.90;;;;;;5022174;28;20435;-75
2023/11/26 10:21:20;;;;;;;4.80;3.70;;;6.90;99.90;;;;;;5005814;28;20485;-73
2023/11/26 10:23:46;;;;;;;5.13;4.07;;;6.80;99.90;;;;;;5023798;28;20761;-73
2023/11/26 10:26:19;;;;;;;12.00;5.23;;;6.60;99.90;;;;;;5023634;28;20416;-74
2023/11/26 10:29:08;;;;;;;5.00;3.80;;;6.80;99.90;;;;;;5032994;28;20680;-74
2023/11/26 10:31:33;;;;;;;4.60;4.20;;;6.90;99.90;;;;;;5032989;28;20883;-75
2023/11/26 10:34:08;;;;;;;7.60;4.47;;;7.10;99.90;;;;;;5038293;28;20398;-73
2023/11/26 10:36:35;;;;;;;6.43;5.83;;;7.30;99.90;;;;;;5052974;28;20437;-74
2023/11/26 10:39:04;;;;;;;4.57;3.63;;;7.40;99.90;;;;;;5052696;28;20835;-74
2023/11/26 10:41:36;;;;;;;6.30;4.20;;;7.20;99.90;;;;;;5052596;28;20458;-75
2023/11/26 10:44:03;;;;;;;4.33;3.47;;;7.10;99.90;;;;;;5045601;28;20410;-76
2023/11/26 10:46:36;;;;;;;5.40;4.10;;;7.30;99.90;;;;;;5032542;28;20417;-75
2023/11/26 10:49:15;;;;;;;8.13;5.40;;;7.40;99.90;;;;;;5034381;28;20441;-75
2023/11/26 10:51:50;;;;;;;4.10;2.87;;;8.90;99.90;;;;;;5036598;28;20414;-73
2023/11/26 10:54:25;;;;;;;4.50;3.80;;;9.70;99.90;;;;;;5043751;28;20443;-75
2023/11/26 10:56:54;;;;;;;8.93;5.97;;;10.20;99.90;;;;;;5056411;28;20393;-73
2023/11/26 10:59:21;;;;;;;5.43;3.70;;;10.40;99.90;;;;;;5056547;28;20786;-74
2023/11/26 11:01:47;;;;;;;6.27;3.63;;;11.10;99.90;;;;;;5056047;28;20798;-75
2023/11/26 11:04:14;;;;;;;5.30;3.23;;;11.40;99.90;;;;;;5052410;28;20415;-74
2023/11/26 11:06:44;;;;;;;5.93;3.37;;;12.30;99.90;;;;;;5056215;28;20433;-74
2023/11/26 11:09:13;;;;;;;4.10;3.00;;;11.40;99.90;;;;;;5056404;28;20454;-74
2023/11/26 11:11:38;;;;;;;4.63;2.90;;;10.80;99.90;;;;;;5056049;28;20769;-74
2023/11/26 11:14:05;;;;;;;5.30;3.10;;;10.10;99.90;;;;;;5053377;28;20427;-75
2023/11/26 11:16:31;;;;;;;4.60;2.63;;;9.20;99.90;;;;;;5056012;28;20167;-74
2023/11/26 11:18:56;;;;;;;5.97;2.93;;;8.90;99.90;;;;;;5055756;28;20408;-74
2023/11/26 11:21:24;;;;;;;3.33;3.03;;;8.30;99.90;;;;;;5055619;28;20219;-75
2023/11/26 11:23:51;;;;;;;4.20;3.30;;;8.20;99.90;;;;;;5054062;28;20524;-73
2023/11/26 11:26:19;;;;;;;8.10;3.33;;;8.30;99.90;;;;;;5035630;28;20407;-74
2023/11/26 11:28:47;;;;;;;3.17;2.87;;;7.90;99.90;;;;;;5035685;28;20445;-74
2023/11/26 11:31:38;;;;;;;3.90;3.10;;;7.80;99.90;;;;;;5035460;28;20893;-74
2023/11/26 11:34:04;;;;;;;5.70;2.97;;;7.70;99.90;;;;;;5039254;28;20432;-74
2023/11/26 11:36:48;;;;;;;5.23;3.93;;;7.80;99.90;;;;;;5055417;28;20410;-73
2023/11/26 11:39:16;;;;;;;6.10;3.43;;;7.80;99.90;;;;;;5056129;28;20868;-73
2023/11/26 11:41:56;;;;;;;5.60;2.80;;;7.60;99.90;;;;;;5055286;28;20501;-73
2023/11/26 11:44:41;;;;;;;3.23;2.93;;;7.70;99.90;;;;;;5049028;28;20498;-73
2023/11/26 11:47:26;;;;;;;4.00;3.03;;;7.70;99.90;;;;;;5035436;28;20896;-73
2023/11/26 11:49:56;;;;;;;4.33;3.03;;;7.60;99.90;;;;;;5035085;28;21023;-73
2023/11/26 11:52:21;;;;;;;5.40;2.93;;;8.00;99.90;;;;;;5034506;28;20791;-73
2023/11/26 11:54:50;;;;;;;3.60;3.10;;;8.00;99.90;;;;;;5043276;28;20411;-74
2023/11/26 11:57:16;;;;;;;4.00;3.20;;;8.20;99.90;;;;;;5036211;28;20214;-73
2023/11/26 11:59:43;;;;;;;2.77;2.40;;;8.30;99.90;;;;;;5034053;28;20438;-73
2023/11/26 12:02:10;;;;;;;6.60;4.10;;;8.30;99.90;;;;;;5034307;28;20424;-73
2023/11/26 12:04:39;;;;;;;5.30;3.37;;;8.50;99.90;;;;;;5042690;28;20399;-74
2023/11/26 12:07:05;;;;;;;6.00;4.10;;;8.60;99.90;;;;;;5055183;28;20424;-75
2023/11/26 12:09:35;;;;;;;6.53;3.43;;;8.60;99.90;;;;;;5054897;28;20937;-74
2023/11/26 12:12:01;;;;;;;5.83;3.10;;;8.70;99.90;;;;;;5054498;28;20433;-73
2023/11/26 12:14:26;;;;;;;3.80;2.60;;;8.90;99.90;;;;;;5048353;28;20448;-74
2023/11/26 12:16:53;;;;;;;4.87;2.80;;;9.10;99.90;;;;;;5034703;28;20166;-74
2023/11/26 12:19:19;;;;;;;3.80;2.33;;;9.00;99.90;;;;;;5034637;28;20591;-73
2023/11/26 12:21:45;;;;;;;3.13;2.53;;;9.00;99.90;;;;;;5034071;28;20452;-73
2023/11/26 12:24:21;;;;;;;3.53;2.60;;;9.00;99.90;;;;;;5039500;28;20536;-73
2023/11/26 12:26:47;;;;;;;3.37;2.80;;;8.70;99.90;;;;;;5054819;28;20404;-73
2023/11/26 12:29:21;;;;;;;4.87;2.90;;;9.00;99.90;;;;;;5054675;28;20810;-74
2023/11/26 12:31:47;;;;;;;5.63;3.43;;;9.00;99.90;;;;;;5054362;28;20559;-74
2023/11/26 12:34:13;;;;;;;2.90;2.63;;;8.60;99.90;;;;;;5050265;28;20405;-74
2023/11/26 12:36:38;;;;;;;6.13;3.50;;;8.40;99.90;;;;;;5034447;28;20180;-75
2023/11/26 12:39:04;;;;;;;3.73;3.00;;;8.20;99.90;;;;;;5034836;28;20174;-74
2023/11/26 12:41:30;;;;;;;3.20;2.80;;;8.00;99.90;;;;;;5034044;28;20177;-75
2023/11/26 12:44:01;;;;;;;4.57;3.07;;;8.00;99.90;;;;;;5035798;28;20233;-74
2023/11/26 12:46:27;;;;;;;5.40;3.30;;;8.20;99.90;;;;;;5054334;28;20202;-73
2023/11/26 12:48:54;;;;;;;5.27;2.70;;;8.20;99.90;;;;;;5054275;28;20445;-74
2023/11/26 12:51:19;;;;;;;3.63;2.60;;;8.30;99.90;;;;;;5053884;28;20234;-74
2023/11/26 12:53:51;;;;;;;3.00;2.70;;;8.60;99.90;;;;;;5054323;28;20421;-74
2023/11/26 12:56:21;;;;;;;4.07;2.30;;;9.10;99.90;;;;;;5014676;28;20168;-74
2023/11/26 12:58:47;;;;;;;3.43;2.13;;;9.40;99.90;;;;;;5014270;28;20421;-74
2023/11/26 13:01:25;;;;;;;3.60;2.00;;;9.20;99.90;;;;;;5014229;28;20406;-72
2023/11/26 13:03:51;;;;;;;4.50;3.20;;;8.90;99.90;;;;;;5015855;28;20167;-75